sensor_id;sensor_type;location;lat;lon;timestamp;pressure;altitude;pressure_sealevel;temperature;humidity
34979;BME280;21185;50.978;13.720;2023-03-23T00:04:26;97516.84;;;13.98;54.51
34979;BME280;21185;50.978;13.720;2023-03-23T00:09:29;97510.63;;;13.99;54.24
34979;BME280;21185;50.978;13.720;2023-03-23T00:14:34;97519.84;;;14.02;54.27
34979;BME280;21185;50.978;13.720;2023-03-23T00:19:41;97511.81;;;14.03;54.04
34979;BME280;21185;50.978;13.720;2023-03-23T00:24:48;97510.00;;;14.04;53.96
34979;BME280;21185;50.978;13.720;2023-03-23T00:29:52;97499.19;;;14.07;53.92
34979;BME280;21185;50.978;13.720;2023-03-23T00:34:54;97494.97;;;14.06;53.87
34979;BME280;21185;50.978;13.720;2023-03-23T00:39:56;97490.75;;;14.05;53.87
34979;BME280;21185;50.978;13.720;2023-03-23T00:44:57;97487.13;;;14.06;53.75
34979;BME280;21185;50.978;13.720;2023-03-23T00:50:03;97481.72;;;14.07;53.63
34979;BME280;21185;50.978;13.720;2023-03-23T00:55:04;97485.94;;;14.08;53.40
34979;BME280;21185;50.978;13.720;2023-03-23T01:00:05;97476.09;;;14.10;53.45
34979;BME280;21185;50.978;13.720;2023-03-23T01:05:15;97477.69;;;14.11;53.12
34979;BME280;21185;50.978;13.720;2023-03-23T01:10:16;97469.06;;;14.11;53.08
34979;BME280;21185;50.978;13.720;2023-03-23T01:15:17;97460.25;;;14.12;52.87
34979;BME280;21185;50.978;13.720;2023-03-23T01:20:18;97444.38;;;14.13;52.74
34979;BME280;21185;50.978;13.720;2023-03-23T01:25:19;97440.16;;;14.12;52.79
34979;BME280;21185;50.978;13.720;2023-03-23T01:30:20;97432.34;;;14.12;52.60
34979;BME280;21185;50.978;13.720;2023-03-23T01:35:21;97438.56;;;14.11;52.41
34979;BME280;21185;50.978;13.720;2023-03-23T01:40:23;97422.13;;;14.11;52.39
34979;BME280;21185;50.978;13.720;2023-03-23T01:45:32;97418.28;;;14.13;52.35
34979;BME280;21185;50.978;13.720;2023-03-23T01:51:06;97415.69;;;14.13;52.02
34979;BME280;21185;50.978;13.720;2023-03-23T01:56:09;97412.06;;;14.14;51.97
34979;BME280;21185;50.978;13.720;2023-03-23T02:01:15;97417.88;;;14.16;51.96
34979;BME280;21185;50.978;13.720;2023-03-23T02:06:16;97416.06;;;14.17;51.67
34979;BME280;21185;50.978;13.720;2023-03-23T02:11:36;97408.63;;;14.20;51.35
34979;BME280;21185;50.978;13.720;2023-03-23T02:38:34;97413.44;;;14.23;50.89
34979;BME280;21185;50.978;13.720;2023-03-23T02:43:40;97422.28;;;14.22;51.01
34979;BME280;21185;50.978;13.720;2023-03-23T02:48:45;97399.81;;;14.21;50.69
34979;BME280;21185;50.978;13.720;2023-03-23T02:53:52;97412.25;;;14.19;50.88
34979;BME280;21185;50.978;13.720;2023-03-23T02:58:55;97405.44;;;14.18;50.79
34979;BME280;21185;50.978;13.720;2023-03-23T03:03:57;97399.63;;;14.16;50.70
34979;BME280;21185;50.978;13.720;2023-03-23T03:09:14;97405.03;;;14.15;50.75
34979;BME280;21185;50.978;13.720;2023-03-23T03:14:23;97404.84;;;14.16;50.75
34979;BME280;21185;50.978;13.720;2023-03-23T03:19:40;97381.34;;;14.16;50.94
34979;BME280;21185;50.978;13.720;2023-03-23T03:24:43;97390.78;;;14.17;50.95
34979;BME280;21185;50.978;13.720;2023-03-23T03:29:50;97388.97;;;14.18;50.96
34979;BME280;21185;50.978;13.720;2023-03-23T03:34:52;97385.34;;;14.19;51.09
34979;BME280;21185;50.978;13.720;2023-03-23T03:39:54;97382.53;;;14.20;51.46
34979;BME280;21185;50.978;13.720;2023-03-23T03:44:56;97384.16;;;14.21;51.25
34979;BME280;21185;50.978;13.720;2023-03-23T03:49:57;97381.34;;;14.23;51.29
34979;BME280;21185;50.978;13.720;2023-03-23T03:54:59;97376.91;;;14.23;51.46
34979;BME280;21185;50.978;13.720;2023-03-23T04:00:03;97388.34;;;14.22;51.38
34979;BME280;21185;50.978;13.720;2023-03-23T04:05:14;97373.50;;;14.23;51.54
34979;BME280;21185;50.978;13.720;2023-03-23T04:10:20;97377.31;;;14.20;51.81
34979;BME280;21185;50.978;13.720;2023-03-23T04:15:29;97378.34;;;14.19;51.81
34979;BME280;21185;50.978;13.720;2023-03-23T04:20:31;97372.72;;;14.16;52.00
34979;BME280;21185;50.978;13.720;2023-03-23T04:25:36;97368.53;;;14.15;52.23
34979;BME280;21185;50.978;13.720;2023-03-23T04:30:39;97361.91;;;14.12;52.25
34979;BME280;21185;50.978;13.720;2023-03-23T04:35:46;97361.31;;;14.10;52.41
34979;BME280;21185;50.978;13.720;2023-03-23T04:41:01;97358.09;;;14.08;52.42
34979;BME280;21185;50.978;13.720;2023-03-23T04:46:20;97353.91;;;14.07;52.45
34979;BME280;21185;50.978;13.720;2023-03-23T04:51:26;97354.31;;;14.04;52.68
34979;BME280;21185;50.978;13.720;2023-03-23T04:56:30;97361.34;;;14.04;52.56
34979;BME280;21185;50.978;13.720;2023-03-23T05:01:40;97367.75;;;14.01;52.88
34979;BME280;21185;50.978;13.720;2023-03-23T05:06:52;97347.31;;;13.98;52.70
34979;BME280;21185;50.978;13.720;2023-03-23T05:12:09;97337.28;;;13.95;52.76
34979;BME280;21185;50.978;13.720;2023-03-23T05:17:20;97354.94;;;13.93;53.20
34979;BME280;21185;50.978;13.720;2023-03-23T05:22:27;97364.78;;;13.91;53.16
34979;BME280;21185;50.978;13.720;2023-03-23T05:27:29;97355.75;;;13.93;53.06
34979;BME280;21185;50.978;13.720;2023-03-23T05:32:36;97350.91;;;13.97;53.13
34979;BME280;21185;50.978;13.720;2023-03-23T05:37:55;97343.28;;;14.02;52.99
34979;BME280;21185;50.978;13.720;2023-03-23T05:42:59;97351.28;;;14.07;52.89
34979;BME280;21185;50.978;13.720;2023-03-23T05:48:23;97356.09;;;14.10;52.91
34979;BME280;21185;50.978;13.720;2023-03-23T05:53:25;97349.47;;;14.14;52.48
34979;BME280;21185;50.978;13.720;2023-03-23T05:58:27;97359.47;;;14.17;52.89
34979;BME280;21185;50.978;13.720;2023-03-23T06:03:28;97360.66;;;14.21;52.42
34979;BME280;21185;50.978;13.720;2023-03-23T06:08:45;97361.84;;;14.25;52.34
34979;BME280;21185;50.978;13.720;2023-03-23T06:13:50;97361.66;;;14.27;52.41
34979;BME280;21185;50.978;13.720;2023-03-23T06:18:50;97350.78;;;14.30;52.09
34979;BME280;21185;50.978;13.720;2023-03-23T06:24:04;97352.19;;;14.33;51.97
34979;BME280;21185;50.978;13.720;2023-03-23T06:29:06;97342.34;;;14.35;51.84
34979;BME280;21185;50.978;13.720;2023-03-23T06:34:13;97347.53;;;14.41;51.69
34979;BME280;21185;50.978;13.720;2023-03-23T06:39:35;97354.34;;;14.49;51.62
34979;BME280;21185;50.978;13.720;2023-03-23T06:45:07;97362.13;;;14.55;51.70
34979;BME280;21185;50.978;13.720;2023-03-23T06:50:10;97371.56;;;14.56;51.56
34979;BME280;21185;50.978;13.720;2023-03-23T06:55:13;97386.44;;;14.56;51.70
34979;BME280;21185;50.978;13.720;2023-03-23T07:00:15;97390.84;;;14.55;51.71
34979;BME280;21185;50.978;13.720;2023-03-23T07:05:17;97394.84;;;14.58;51.61
34979;BME280;21185;50.978;13.720;2023-03-23T07:10:19;97390.41;;;14.65;51.50
34979;BME280;21185;50.978;13.720;2023-03-23T07:15:20;97388.72;;;14.77;51.55
34979;BME280;21185;50.978;13.720;2023-03-23T07:20:25;97398.28;;;14.90;51.23
34979;BME280;21185;50.978;13.720;2023-03-23T07:25:27;97400.03;;;15.03;51.18
34979;BME280;21185;50.978;13.720;2023-03-23T07:30:31;97403.19;;;15.11;51.08
34979;BME280;21185;50.978;13.720;2023-03-23T07:35:32;97408.16;;;15.19;51.07
34979;BME280;21185;50.978;13.720;2023-03-23T07:40:38;97408.91;;;15.27;50.70
34979;BME280;21185;50.978;13.720;2023-03-23T07:45:50;97411.28;;;15.28;50.73
34979;BME280;21185;50.978;13.720;2023-03-23T07:50:52;97428.16;;;15.32;50.67
34979;BME280;21185;50.978;13.720;2023-03-23T07:55:54;97412.84;;;15.36;50.83
34979;BME280;21185;50.978;13.720;2023-03-23T08:01:24;97421.22;;;15.44;50.71
34979;BME280;21185;50.978;13.720;2023-03-23T08:06:48;97423.63;;;15.46;50.83
34979;BME280;21185;50.978;13.720;2023-03-23T08:12:12;97424.41;;;15.46;50.85
34979;BME280;21185;50.978;13.720;2023-03-23T08:17:33;97432.63;;;15.50;50.90
34979;BME280;21185;50.978;13.720;2023-03-23T08:22:58;97432.69;;;15.43;50.57
34979;BME280;21185;50.978;13.720;2023-03-23T08:28:20;97441.75;;;15.41;50.88
34979;BME280;21185;50.978;13.720;2023-03-23T08:33:40;97443.00;;;15.38;50.84
34979;BME280;21185;50.978;13.720;2023-03-23T08:38:55;97457.88;;;15.38;50.96
34979;BME280;21185;50.978;13.720;2023-03-23T08:44:15;97445.22;;;15.35;50.93
34979;BME280;21185;50.978;13.720;2023-03-23T08:49:32;97450.44;;;15.35;51.14
34979;BME280;21185;50.978;13.720;2023-03-23T08:55:08;97448.84;;;15.34;51.23
34979;BME280;21185;50.978;13.720;2023-03-23T09:00:27;97458.28;;;15.35;51.39
34979;BME280;21185;50.978;13.720;2023-03-23T09:05:47;97447.84;;;15.35;51.58
34979;BME280;21185;50.978;13.720;2023-03-23T09:10:59;97456.47;;;15.35;51.62
34979;BME280;21185;50.978;13.720;2023-03-23T09:16:00;97461.88;;;15.40;51.36
34979;BME280;21185;50.978;13.720;2023-03-23T09:21:02;97469.72;;;15.40;51.53
34979;BME280;21185;50.978;13.720;2023-03-23T09:26:03;97471.75;;;15.38;51.70
34979;BME280;21185;50.978;13.720;2023-03-23T09:31:05;97469.56;;;15.35;52.25
34979;BME280;21185;50.978;13.720;2023-03-23T09:36:06;97481.66;;;15.30;52.90
34979;BME280;21185;50.978;13.720;2023-03-23T09:41:33;97488.31;;;15.26;53.63
34979;BME280;21185;50.978;13.720;2023-03-23T09:52:08;97486.91;;;15.23;54.85
34979;BME280;21185;50.978;13.720;2023-03-23T09:57:16;97492.56;;;15.20;55.24
34979;BME280;21185;50.978;13.720;2023-03-23T10:02:52;97486.34;;;15.21;55.98
34979;BME280;21185;50.978;13.720;2023-03-23T10:07:54;97485.31;;;15.22;56.25
34979;BME280;21185;50.978;13.720;2023-03-23T10:13:01;97487.31;;;15.27;56.64
34979;BME280;21185;50.978;13.720;2023-03-23T10:18:17;97486.66;;;15.31;56.65
34979;BME280;21185;50.978;13.720;2023-03-23T10:28:24;97479.59;;;15.38;56.85
34979;BME280;21185;50.978;13.720;2023-03-23T10:33:40;97481.34;;;15.44;57.18
34979;BME280;21185;50.978;13.720;2023-03-23T10:38:48;97489.34;;;15.49;57.13
34979;BME280;21185;50.978;13.720;2023-03-23T10:43:50;97474.25;;;15.51;56.94
34979;BME280;21185;50.978;13.720;2023-03-23T10:48:53;97469.00;;;15.58;57.00
34979;BME280;21185;50.978;13.720;2023-03-23T10:53:58;97463.69;;;15.65;57.01
34979;BME280;21185;50.978;13.720;2023-03-23T10:59:14;97473.31;;;15.71;56.86
34979;BME280;21185;50.978;13.720;2023-03-23T11:04:17;97468.06;;;15.71;56.81
34979;BME280;21185;50.978;13.720;2023-03-23T11:09:21;97468.88;;;15.71;56.70
34979;BME280;21185;50.978;13.720;2023-03-23T11:14:35;97480.13;;;15.72;56.75
34979;BME280;21185;50.978;13.720;2023-03-23T11:19:39;97477.72;;;15.70;56.25
34979;BME280;21185;50.978;13.720;2023-03-23T11:24:42;97484.19;;;15.68;56.56
34979;BME280;21185;50.978;13.720;2023-03-23T11:29:52;97487.22;;;15.65;56.59
34979;BME280;21185;50.978;13.720;2023-03-23T11:34:58;97480.63;;;15.62;56.67
34979;BME280;21185;50.978;13.720;2023-03-23T11:40:10;97491.75;;;15.58;56.87
34979;BME280;21185;50.978;13.720;2023-03-23T11:50:35;97497.38;;;15.54;57.42
34979;BME280;21185;50.978;13.720;2023-03-23T11:55:49;97512.88;;;15.49;57.84
34979;BME280;21185;50.978;13.720;2023-03-23T12:00:58;97511.91;;;15.44;58.69
34979;BME280;21185;50.978;13.720;2023-03-23T12:27:19;97515.78;;;15.66;59.35
34979;BME280;21185;50.978;13.720;2023-03-23T12:37:36;97498.72;;;15.64;59.73
34979;BME280;21185;50.978;13.720;2023-03-23T12:43:24;97486.06;;;15.61;59.65
34979;BME280;21185;50.978;13.720;2023-03-23T12:48:31;97480.06;;;15.60;59.46
34979;BME280;21185;50.978;13.720;2023-03-23T12:59:46;97475.72;;;15.72;59.70
34979;BME280;21185;50.978;13.720;2023-03-23T13:04:50;97476.59;;;15.84;59.42
34979;BME280;21185;50.978;13.720;2023-03-23T13:10:07;97479.75;;;15.93;59.06
34979;BME280;21185;50.978;13.720;2023-03-23T13:15:27;97487.16;;;15.96;58.78
34979;BME280;21185;50.978;13.720;2023-03-23T13:26:41;97487.31;;;16.01;57.56
34979;BME280;21185;50.978;13.720;2023-03-23T13:31:48;97475.03;;;16.02;57.47
34979;BME280;21185;50.978;13.720;2023-03-23T13:36:54;97479.47;;;16.01;57.45
34979;BME280;21185;50.978;13.720;2023-03-23T13:58:09;97435.94;;;16.07;56.75
34979;BME280;21185;50.978;13.720;2023-03-23T14:03:26;97423.81;;;16.12;56.74
34979;BME280;21185;50.978;13.720;2023-03-23T14:19:01;97413.19;;;16.26;56.20
34979;BME280;21185;50.978;13.720;2023-03-23T14:24:09;97416.81;;;16.25;56.20
34979;BME280;21185;50.978;13.720;2023-03-23T14:29:12;97420.38;;;16.30;56.15
34979;BME280;21185;50.978;13.720;2023-03-23T14:34:16;97422.78;;;16.32;56.18
34979;BME280;21185;50.978;13.720;2023-03-23T14:39:35;97442.50;;;16.34;56.02
34979;BME280;21185;50.978;13.720;2023-03-23T14:44:42;97439.66;;;16.36;55.79
34979;BME280;21185;50.978;13.720;2023-03-23T14:49:44;97436.81;;;16.37;56.06
34979;BME280;21185;50.978;13.720;2023-03-23T14:54:45;97430.91;;;16.42;56.20
34979;BME280;21185;50.978;13.720;2023-03-23T14:59:47;97439.28;;;16.50;56.05
34979;BME280;21185;50.978;13.720;2023-03-23T15:04:52;97431.28;;;16.45;56.02
34979;BME280;21185;50.978;13.720;2023-03-23T15:09:55;97443.28;;;16.35;55.64
34979;BME280;21185;50.978;13.720;2023-03-23T15:14:59;97441.75;;;16.27;55.79
34979;BME280;21185;50.978;13.720;2023-03-23T15:20:21;97441.84;;;16.20;55.87
34979;BME280;21185;50.978;13.720;2023-03-23T15:35:24;97444.59;;;16.26;55.45
34979;BME280;21185;50.978;13.720;2023-03-23T15:40:31;97461.59;;;16.16;55.14
34979;BME280;21185;50.978;13.720;2023-03-23T15:45:33;97466.09;;;16.09;55.32
34979;BME280;21185;50.978;13.720;2023-03-23T15:50:34;97472.22;;;16.03;55.29
34979;BME280;21185;50.978;13.720;2023-03-23T15:55:38;97469.22;;;16.00;55.14
34979;BME280;21185;50.978;13.720;2023-03-23T16:00:40;97476.69;;;15.96;54.80
34979;BME280;21185;50.978;13.720;2023-03-23T16:05:43;97486.00;;;15.92;54.93
34979;BME280;21185;50.978;13.720;2023-03-23T16:10:46;97492.69;;;15.88;55.17
34979;BME280;21185;50.978;13.720;2023-03-23T16:15:48;97484.44;;;15.84;55.06
34979;BME280;21185;50.978;13.720;2023-03-23T16:20:50;97475.22;;;15.82;55.08
34979;BME280;21185;50.978;13.720;2023-03-23T16:25:52;97478.06;;;15.80;55.26
34979;BME280;21185;50.978;13.720;2023-03-23T16:30:58;97497.81;;;15.76;55.02
34979;BME280;21185;50.978;13.720;2023-03-23T16:36:06;97511.56;;;15.65;55.05
34979;BME280;21185;50.978;13.720;2023-03-23T16:41:08;97522.72;;;15.54;55.58
34979;BME280;21185;50.978;13.720;2023-03-23T16:46:11;97523.78;;;15.46;55.78
34979;BME280;21185;50.978;13.720;2023-03-23T16:51:14;97528.25;;;15.39;56.19
34979;BME280;21185;50.978;13.720;2023-03-23T16:56:16;97530.69;;;15.34;56.45
34979;BME280;21185;50.978;13.720;2023-03-23T17:01:18;97541.97;;;15.28;56.82
34979;BME280;21185;50.978;13.720;2023-03-23T17:06:21;97530.34;;;15.24;57.07
34979;BME280;21185;50.978;13.720;2023-03-23T17:11:23;97540.63;;;15.19;57.19
34979;BME280;21185;50.978;13.720;2023-03-23T17:16:25;97537.25;;;15.12;57.76
34979;BME280;21185;50.978;13.720;2023-03-23T17:21:27;97551.13;;;15.06;58.00
34979;BME280;21185;50.978;13.720;2023-03-23T17:26:29;97575.47;;;15.00;58.25
34979;BME280;21185;50.978;13.720;2023-03-23T17:31:32;97568.47;;;14.94;58.36
34979;BME280;21185;50.978;13.720;2023-03-23T17:36:34;97561.47;;;14.87;58.55
34979;BME280;21185;50.978;13.720;2023-03-23T17:41:36;97566.69;;;14.81;58.73
34979;BME280;21185;50.978;13.720;2023-03-23T17:46:38;97576.16;;;14.75;59.02
34979;BME280;21185;50.978;13.720;2023-03-23T17:51:40;97569.16;;;14.69;59.17
34979;BME280;21185;50.978;13.720;2023-03-23T17:56:43;97559.13;;;14.60;59.34
34979;BME280;21185;50.978;13.720;2023-03-23T18:01:45;97565.38;;;14.52;59.37
34979;BME280;21185;50.978;13.720;2023-03-23T18:06:49;97564.38;;;14.46;59.65
34979;BME280;21185;50.978;13.720;2023-03-23T18:11:51;97560.75;;;14.41;59.84
34979;BME280;21185;50.978;13.720;2023-03-23T18:16:53;97573.59;;;14.36;59.71
34979;BME280;21185;50.978;13.720;2023-03-23T18:21:56;97573.22;;;14.32;60.03
34979;BME280;21185;50.978;13.720;2023-03-23T18:26:58;97568.38;;;14.29;60.00
34979;BME280;21185;50.978;13.720;2023-03-23T18:32:01;97571.19;;;14.27;60.05
34979;BME280;21185;50.978;13.720;2023-03-23T18:37:03;97561.16;;;14.24;60.10
34979;BME280;21185;50.978;13.720;2023-03-23T18:42:05;97560.38;;;14.24;60.41
34979;BME280;21185;50.978;13.720;2023-03-23T18:47:07;97557.97;;;14.22;60.30
34979;BME280;21185;50.978;13.720;2023-03-23T18:52:08;97570.00;;;14.23;60.41
34979;BME280;21185;50.978;13.720;2023-03-23T18:57:11;97566.78;;;14.21;60.66
34979;BME280;21185;50.978;13.720;2023-03-23T19:02:14;97559.75;;;14.22;60.57
34979;BME280;21185;50.978;13.720;2023-03-23T19:07:19;97563.19;;;14.22;60.51
34979;BME280;21185;50.978;13.720;2023-03-23T19:12:21;97566.00;;;14.21;60.78
34979;BME280;21185;50.978;13.720;2023-03-23T19:17:23;97559.75;;;14.22;60.66
34979;BME280;21185;50.978;13.720;2023-03-23T19:22:26;97559.97;;;14.20;60.53
34979;BME280;21185;50.978;13.720;2023-03-23T19:27:28;97557.75;;;14.17;60.69
34979;BME280;21185;50.978;13.720;2023-03-23T19:32:32;97560.38;;;14.17;60.60
34979;BME280;21185;50.978;13.720;2023-03-23T19:37:34;97564.00;;;14.16;60.54
34979;BME280;21185;50.978;13.720;2023-03-23T19:42:36;97549.34;;;14.15;60.69
34979;BME280;21185;50.978;13.720;2023-03-23T19:47:40;97549.53;;;14.14;60.60
34979;BME280;21185;50.978;13.720;2023-03-23T19:52:42;97552.34;;;14.12;60.52
34979;BME280;21185;50.978;13.720;2023-03-23T19:57:45;97553.16;;;14.13;60.69
34979;BME280;21185;50.978;13.720;2023-03-23T20:02:47;97558.16;;;14.14;60.56
34979;BME280;21185;50.978;13.720;2023-03-23T20:07:49;97554.56;;;14.15;60.60
34979;BME280;21185;50.978;13.720;2023-03-23T20:12:52;97558.56;;;14.18;60.52
34979;BME280;21185;50.978;13.720;2023-03-23T20:17:54;97563.19;;;14.22;60.63
34979;BME280;21185;50.978;13.720;2023-03-23T20:22:58;97555.34;;;14.22;60.68
34979;BME280;21185;50.978;13.720;2023-03-23T20:28:02;97556.16;;;14.23;60.59
34979;BME280;21185;50.978;13.720;2023-03-23T20:33:04;97560.56;;;14.22;60.77
34979;BME280;21185;50.978;13.720;2023-03-23T20:38:06;97556.56;;;14.26;60.55
34979;BME280;21185;50.978;13.720;2023-03-23T20:43:08;97564.38;;;14.26;60.56
34979;BME280;21185;50.978;13.720;2023-03-23T20:48:11;97573.22;;;14.25;60.70
34979;BME280;21185;50.978;13.720;2023-03-23T20:53:13;97570.00;;;14.23;60.91
34979;BME280;21185;50.978;13.720;2023-03-23T20:58:15;97570.00;;;14.23;61.01
34979;BME280;21185;50.978;13.720;2023-03-23T21:03:17;97570.19;;;14.22;60.82
34979;BME280;21185;50.978;13.720;2023-03-23T21:08:19;97562.56;;;14.20;61.08
34979;BME280;21185;50.978;13.720;2023-03-23T21:13:22;97555.75;;;14.19;61.11
34979;BME280;21185;50.978;13.720;2023-03-23T21:18:24;97552.53;;;14.17;61.04
34979;BME280;21185;50.978;13.720;2023-03-23T21:23:27;97552.34;;;14.19;61.18
34979;BME280;21185;50.978;13.720;2023-03-23T21:28:30;97547.13;;;14.19;61.21
34979;BME280;21185;50.978;13.720;2023-03-23T21:33:33;97537.50;;;14.19;61.13
34979;BME280;21185;50.978;13.720;2023-03-23T21:38:36;97522.03;;;14.18;61.20
34979;BME280;21185;50.978;13.720;2023-03-23T21:43:39;97531.47;;;14.19;61.13
34979;BME280;21185;50.978;13.720;2023-03-23T21:48:41;97534.28;;;14.17;61.14
34979;BME280;21185;50.978;13.720;2023-03-23T21:53:43;97523.03;;;14.17;61.17
34979;BME280;21185;50.978;13.720;2023-03-23T21:58:45;97511.00;;;14.16;61.24
34979;BME280;21185;50.978;13.720;2023-03-23T22:03:47;97512.59;;;14.17;61.33
34979;BME280;21185;50.978;13.720;2023-03-23T22:08:49;97503.97;;;14.16;61.21
34979;BME280;21185;50.978;13.720;2023-03-23T22:13:52;97502.16;;;14.17;61.24
34979;BME280;21185;50.978;13.720;2023-03-23T22:18:55;97501.38;;;14.16;61.20
34979;BME280;21185;50.978;13.720;2023-03-23T22:24:01;97498.16;;;14.14;61.34
34979;BME280;21185;50.978;13.720;2023-03-23T22:29:04;97491.34;;;14.13;61.37
34979;BME280;21185;50.978;13.720;2023-03-23T22:34:06;97490.53;;;14.13;61.43
34979;BME280;21185;50.978;13.720;2023-03-23T22:39:08;97484.72;;;14.11;61.27
34979;BME280;21185;50.978;13.720;2023-03-23T22:44:15;97482.91;;;14.11;61.28
34979;BME280;21185;50.978;13.720;2023-03-23T22:49:18;97468.47;;;14.09;61.31
34979;BME280;21185;50.978;13.720;2023-03-23T22:54:21;97471.28;;;14.07;61.33
34979;BME280;21185;50.978;13.720;2023-03-23T22:59:23;97467.06;;;14.06;61.27
34979;BME280;21185;50.978;13.720;2023-03-23T23:04:25;97459.25;;;14.06;61.35
34979;BME280;21185;50.978;13.720;2023-03-23T23:09:27;97456.03;;;14.04;61.43
34979;BME280;21185;50.978;13.720;2023-03-23T23:14:29;97455.44;;;14.02;61.42
34979;BME280;21185;50.978;13.720;2023-03-23T23:19:31;97449.84;;;13.99;61.44
34979;BME280;21185;50.978;13.720;2023-03-23T23:24:33;97443.22;;;13.96;61.70
34979;BME280;21185;50.978;13.720;2023-03-23T23:29:35;97436.81;;;13.92;61.83
34979;BME280;21185;50.978;13.720;2023-03-23T23:34:37;97435.00;;;13.92;61.80
34979;BME280;21185;50.978;13.720;2023-03-23T23:39:40;97434.41;;;13.90;61.81
34979;BME280;21185;50.978;13.720;2023-03-23T23:44:43;97425.56;;;13.91;61.80
34979;BME280;21185;50.978;13.720;2023-03-23T23:49:48;97425.38;;;13.93;61.89
34979;BME280;21185;50.978;13.720;2023-03-23T23:54:49;97411.13;;;13.96;61.87
34979;BME280;21185;50.978;13.720;2023-03-23T23:59:53;97407.72;;;13.95;61.78
